createdAt,value
2022-08-09T00:00:04.222Z,0.20
2022-08-09T00:02:49.276Z,0.17
2022-08-09T00:06:17.780Z,0.40
2022-08-09T00:08:10.123Z,0.20
2022-08-09T00:10:40.798Z,0.20
2022-08-09T00:13:16.879Z,0.20
2022-08-09T00:16:00.111Z,0.30
2022-08-09T00:18:34.943Z,0.30
2022-08-09T00:21:05.021Z,0.10
2022-08-09T00:23:57.681Z,0.30
2022-08-09T00:26:19.830Z,0.10
2022-08-09T00:28:57.945Z,0.25
2022-08-09T00:31:58.281Z,0.32
2022-08-09T00:34:12.467Z,0.20
2022-08-09T00:36:41.772Z,0.40
2022-08-09T00:39:10.908Z,0.20
2022-08-09T00:44:10.260Z,0.47
2022-08-09T00:44:46.930Z,0.20
2022-08-09T00:47:15.505Z,0.20
2022-08-09T00:49:43.758Z,0.35
2022-08-09T00:52:28.119Z,0.30
2022-08-09T00:55:01.374Z,0.65
2022-08-09T00:57:35.079Z,0.35
2022-08-09T01:00:21.879Z,0.13
2022-08-09T01:02:50.930Z,0.10
2022-08-09T01:05:53.412Z,0.20
2022-08-09T01:08:30.291Z,0.10
2022-08-09T01:10:58.139Z,0.30
2022-08-09T01:13:59.213Z,0.20
2022-08-09T01:16:54.962Z,0.13
2022-08-09T01:19:51.573Z,0.10
2022-08-09T01:22:19.014Z,0.30
2022-08-09T01:25:12.397Z,0.20
2022-08-09T01:27:40.055Z,0.10
2022-08-09T01:30:08.488Z,0.15
2022-08-09T01:32:56.455Z,0.30
2022-08-09T01:35:42.556Z,0.40
2022-08-09T01:38:14.924Z,0.43
2022-08-09T01:40:53.004Z,0.20
2022-08-09T01:43:50.639Z,0.20
2022-08-09T01:46:25.092Z,0.30
2022-08-09T01:48:55.588Z,0.20
2022-08-09T01:51:23.675Z,0.20
2022-08-09T01:53:54.747Z,0.22
2022-08-09T01:56:26.402Z,0.20
2022-08-09T01:58:53.714Z,0.20
2022-08-09T02:01:21.414Z,0.20
2022-08-09T02:04:03.577Z,0.20
2022-08-09T02:06:54.384Z,0.68
2022-08-09T02:09:26.171Z,0.52
2022-08-09T02:12:11.315Z,0.20
2022-08-09T02:14:46.915Z,0.38
2022-08-09T02:17:15.154Z,0.22
2022-08-09T02:20:01.257Z,0.15
2022-08-09T02:22:36.499Z,0.20
2022-08-09T02:25:10.235Z,0.10
2022-08-09T02:27:57.670Z,0.43
2022-08-09T02:30:29.479Z,0.20
2022-08-09T02:32:56.754Z,0.30
2022-08-09T02:35:46.259Z,0.20
2022-08-09T02:38:27.812Z,0.20
2022-08-09T02:40:57.845Z,0.30
2022-08-09T02:43:25.450Z,0.30
2022-08-09T02:45:55.947Z,0.30
2022-08-09T02:48:30.631Z,0.52
2022-08-09T02:50:59.690Z,0.10
2022-08-09T02:53:52.985Z,0.17
2022-08-09T02:56:28.001Z,0.25
2022-08-09T02:58:55.284Z,0.35
2022-08-09T03:01:42.853Z,0.25
2022-08-09T03:04:19.149Z,0.20
2022-08-09T03:06:48.931Z,0.20
2022-08-09T03:09:17.228Z,0.20
2022-08-09T03:12:09.811Z,0.20
2022-08-09T03:14:31.997Z,0.20
2022-08-09T03:17:01.843Z,0.20
2022-08-09T03:19:58.439Z,0.20
2022-08-09T03:22:25.207Z,0.13
2022-08-09T03:25:06.541Z,0.20
2022-08-09T03:27:49.556Z,0.57
2022-08-09T03:30:29.980Z,0.20
2022-08-09T03:33:12.655Z,0.10
2022-08-09T03:36:13.510Z,0.50
2022-08-09T03:38:31.190Z,0.30
2022-08-09T03:40:58.411Z,0.20
2022-08-09T03:43:32.118Z,0.20
2022-08-09T03:46:04.475Z,0.40
2022-08-09T03:48:52.951Z,0.10
2022-08-09T03:51:55.062Z,0.30
2022-08-09T03:54:14.243Z,0.20
2022-08-09T03:56:41.692Z,0.30
2022-08-09T03:59:17.155Z,0.30
2022-08-09T04:01:49.350Z,0.20
2022-08-09T04:04:17.064Z,0.20
2022-08-09T04:06:49.316Z,0.20
2022-08-09T04:09:47.459Z,0.30
2022-08-09T04:12:31.058Z,0.30
2022-08-09T04:15:00.719Z,0.20
2022-08-09T04:17:29.740Z,0.20
2022-08-09T04:19:56.950Z,0.20
2022-08-09T04:22:24.155Z,0.20
2022-08-09T04:24:54.960Z,0.30
2022-08-09T04:27:22.426Z,0.30
2022-08-09T04:29:50.468Z,0.30
2022-08-09T04:32:23.740Z,0.20
2022-08-09T04:34:58.581Z,0.20
2022-08-09T04:37:45.698Z,0.35
2022-08-09T04:40:29.106Z,0.30
2022-08-09T04:43:01.309Z,0.10
2022-08-09T04:45:30.823Z,0.32
2022-08-09T04:48:07.972Z,0.30
2022-08-09T04:50:38.039Z,0.20
2022-08-09T04:53:11.536Z,0.20
2022-08-09T04:55:58.150Z,0.10
2022-08-09T04:58:27.292Z,0.10
2022-08-09T05:00:55.356Z,0.32
2022-08-09T05:03:41.285Z,0.28
2022-08-09T05:06:11.447Z,0.20
2022-08-09T05:08:38.786Z,0.20
2022-08-09T05:11:11.112Z,0.25
2022-08-09T05:13:38.664Z,0.68
2022-08-09T05:16:10.098Z,0.30
2022-08-09T05:18:58.337Z,0.10
2022-08-09T05:21:29.911Z,0.13
2022-08-09T05:24:01.186Z,0.63
2022-08-09T05:26:41.105Z,0.30
2022-08-09T05:29:22.211Z,0.20
2022-08-09T05:31:57.296Z,0.10
2022-08-09T05:34:31.245Z,0.20
2022-08-09T05:37:07.217Z,0.30
2022-08-09T05:39:43.410Z,0.25
2022-08-09T05:42:16.958Z,0.20
2022-08-09T05:44:50.844Z,0.30
2022-08-09T05:47:19.350Z,0.35
2022-08-09T05:50:31.294Z,0.20
2022-08-09T05:52:38.499Z,0.52
2022-08-09T05:55:08.959Z,0.30
2022-08-09T05:57:50.957Z,0.80
2022-08-09T06:00:29.156Z,0.60
2022-08-09T06:03:00.717Z,1.00
2022-08-09T06:05:57.733Z,1.40
2022-08-09T06:08:19.864Z,1.63
2022-08-09T06:10:53.495Z,0.80
2022-08-09T06:13:21.109Z,1.17
2022-08-09T06:15:52.348Z,0.95
2022-08-09T06:18:25.179Z,0.80
2022-08-09T06:20:57.864Z,0.90
2022-08-09T06:23:57.628Z,1.08
2022-08-09T06:26:20.491Z,1.95
2022-08-09T06:28:59.586Z,1.60
2022-08-09T06:31:30.991Z,2.20
2022-08-09T06:33:58.889Z,1.50
2022-08-09T06:36:27.381Z,1.88
2022-08-09T06:38:57.472Z,1.77
2022-08-09T06:42:01.223Z,1.67
2022-08-09T06:44:14.389Z,2.15
2022-08-09T06:46:45.760Z,1.58
2022-08-09T06:49:16.076Z,2.00
2022-08-09T06:51:50.017Z,2.15
2022-08-09T06:54:18.252Z,1.98
2022-08-09T06:56:47.556Z,1.95
2022-08-09T07:00:56.943Z,2.63
2022-08-09T07:02:03.890Z,2.25
2022-08-09T07:04:31.575Z,2.28
2022-08-09T07:07:00.084Z,1.80
2022-08-09T07:09:54.832Z,2.35
2022-08-09T07:12:18.310Z,2.05
2022-08-09T07:14:50.863Z,2.55
2022-08-09T07:17:22.596Z,2.67
2022-08-09T07:19:50.767Z,3.35
2022-08-09T07:22:18.909Z,1.77
2022-08-09T07:25:09.745Z,2.40
2022-08-09T07:27:43.211Z,2.33
2022-08-09T07:30:25.283Z,2.92
2022-08-09T07:32:52.870Z,3.10
2022-08-09T07:35:22.547Z,2.65
2022-08-09T07:37:50.539Z,2.22
2022-08-09T07:40:20.637Z,2.95
2022-08-09T07:42:56.049Z,2.53
2022-08-09T07:45:38.221Z,2.63
2022-08-09T07:48:25.810Z,3.40
2022-08-09T07:51:10.156Z,2.80
2022-08-09T07:54:05.043Z,3.40
2022-08-09T07:56:31.195Z,2.50
2022-08-09T07:58:59.539Z,2.55
2022-08-09T08:01:33.104Z,2.38
2022-08-09T08:04:02.442Z,1.55
2022-08-09T08:06:31.973Z,1.77
2022-08-09T08:09:05.036Z,2.00
2022-08-09T08:12:11.390Z,1.80
2022-08-09T08:14:24.199Z,1.25
2022-08-09T08:17:07.478Z,1.63
2022-08-09T08:19:36.274Z,1.60
2022-08-09T08:22:04.098Z,1.35
2022-08-09T08:24:39.880Z,1.05
2022-08-09T08:27:16.648Z,1.65
2022-08-09T08:29:48.542Z,0.60
2022-08-09T08:32:18.988Z,0.70
2022-08-09T08:34:58.974Z,0.13
2022-08-09T08:37:41.549Z,1.00
2022-08-09T08:40:15.420Z,0.70
2022-08-09T08:42:43.610Z,0.63
2022-08-09T08:45:14.575Z,1.05
2022-08-09T08:47:42.777Z,0.30
2022-08-09T08:50:14.567Z,0.35
2022-08-09T08:52:59.658Z,0.28
2022-08-09T08:55:28.684Z,0.30
2022-08-09T08:57:59.515Z,0.30
2022-08-09T09:00:30.388Z,0.45
2022-08-09T09:03:11.670Z,0.40
2022-08-09T09:06:00.007Z,0.30
2022-08-09T09:08:40.751Z,0.30
2022-08-09T09:11:17.421Z,0.38
2022-08-09T09:13:56.620Z,0.20
2022-08-09T09:16:32.297Z,0.20
2022-08-09T09:19:29.407Z,0.10
2022-08-09T09:22:04.201Z,0.10
2022-08-09T09:24:46.426Z,0.20
2022-08-09T09:28:04.330Z,0.10
2022-08-09T09:30:26.152Z,0.52
2022-08-09T09:33:15.308Z,0.10
2022-08-09T09:36:00.829Z,0.00
2022-08-09T09:38:40.954Z,0.10
2022-08-09T09:41:10.714Z,0.10
2022-08-09T09:43:41.384Z,0.10
2022-08-09T09:46:50.429Z,0.10
2022-08-09T09:49:50.059Z,0.75
2022-08-09T09:52:16.276Z,0.15
2022-08-09T09:55:24.287Z,0.20
2022-08-09T09:58:16.588Z,0.10
2022-08-09T10:00:59.626Z,0.00
2022-08-09T10:03:59.198Z,0.10
2022-08-09T10:06:28.337Z,0.10
2022-08-09T10:09:12.047Z,0.00
2022-08-09T10:12:00.614Z,0.00
2022-08-09T10:14:36.420Z,0.03
2022-08-09T10:17:38.917Z,0.20
2022-08-09T10:20:00.120Z,0.28
2022-08-09T10:22:35.275Z,0.00
2022-08-09T10:25:12.071Z,0.00
2022-08-09T10:27:56.373Z,0.00
2022-08-09T10:34:04.598Z,0.00
2022-08-09T10:36:02.373Z,0.00
2022-08-09T10:38:43.241Z,0.00
2022-08-09T10:41:17.826Z,0.10
2022-08-09T10:43:59.331Z,0.00
2022-08-09T10:46:30.526Z,0.00
2022-08-09T10:49:10.400Z,0.00
2022-08-09T10:51:41.479Z,0.32
2022-08-09T10:54:13.021Z,0.00
2022-08-09T10:56:41.402Z,0.00
2022-08-09T10:59:31.025Z,0.13
2022-08-09T11:03:15.797Z,0.00
2022-08-09T11:05:25.269Z,0.20
2022-08-09T11:07:59.433Z,0.00
2022-08-09T11:10:54.308Z,0.00
2022-08-09T11:13:50.384Z,0.00
2022-08-09T11:16:35.108Z,0.00
2022-08-09T11:19:09.724Z,0.00
2022-08-09T11:24:22.625Z,0.00
2022-08-09T11:26:52.337Z,0.00
2022-08-09T11:30:06.504Z,0.00
2022-08-09T11:32:50.813Z,0.00
2022-08-09T11:35:34.883Z,0.25
2022-08-09T11:38:16.636Z,0.00
2022-08-09T11:40:44.480Z,0.08
2022-08-09T11:43:15.817Z,0.00
2022-08-09T11:46:03.690Z,0.00
2022-08-09T11:48:32.576Z,0.17
2022-08-09T11:52:57.092Z,0.10
2022-08-09T11:54:27.771Z,0.20
2022-08-09T11:58:00.405Z,0.10
2022-08-09T12:00:31.845Z,0.00
2022-08-09T12:03:00.464Z,0.00
2022-08-09T12:05:47.497Z,0.00
2022-08-09T12:08:20.024Z,0.10
2022-08-09T12:10:56.136Z,0.13
2022-08-09T12:14:08.295Z,0.00
2022-08-09T12:16:38.109Z,0.00
2022-08-09T12:19:09.450Z,0.00
2022-08-09T12:21:50.358Z,0.00
2022-08-09T12:24:24.097Z,0.00
2022-08-09T12:29:10.982Z,0.00
2022-08-09T12:29:44.496Z,0.00
2022-08-09T12:32:26.022Z,0.00
2022-08-09T12:34:59.402Z,0.00
2022-08-09T12:37:44.115Z,0.00
2022-08-09T12:40:18.632Z,0.00
2022-08-09T12:42:46.087Z,0.10
2022-08-09T12:45:33.738Z,0.00
2022-08-09T12:48:00.219Z,0.00
2022-08-09T12:50:27.665Z,0.00
2022-08-09T12:53:17.556Z,0.00
2022-08-09T12:56:14.816Z,0.20
2022-08-09T12:58:29.764Z,0.47
2022-08-09T13:00:57.611Z,0.00
2022-08-09T13:03:58.576Z,0.05
2022-08-09T13:06:33.933Z,0.00
2022-08-09T13:09:13.474Z,0.30
2022-08-09T13:11:44.677Z,0.25
2022-08-09T13:14:42.957Z,0.00
2022-08-09T13:17:08.499Z,0.10
2022-08-09T13:20:08.621Z,0.00
2022-08-09T13:22:36.031Z,0.00
2022-08-09T13:25:13.863Z,0.00
2022-08-09T13:27:48.194Z,0.00
2022-08-09T13:31:10.942Z,0.20
2022-08-09T13:33:12.006Z,0.80
2022-08-09T13:36:24.422Z,0.00
2022-08-09T13:38:55.464Z,0.00
2022-08-09T13:41:57.791Z,0.05
2022-08-09T13:44:09.184Z,0.10
2022-08-09T13:47:17.762Z,0.00
2022-08-09T13:49:38.065Z,0.00
2022-08-09T13:52:15.132Z,0.00
2022-08-09T13:54:59.333Z,0.03
2022-08-09T13:57:35.895Z,0.00
2022-08-09T14:00:12.065Z,0.00
2022-08-09T14:02:42.722Z,0.00
2022-08-09T14:06:00.032Z,0.05
2022-08-09T14:08:17.668Z,0.00
2022-08-09T14:10:51.842Z,0.08
2022-08-09T14:14:15.698Z,0.10
2022-08-09T14:16:13.993Z,0.00
2022-08-09T14:18:45.117Z,0.00
2022-08-09T14:21:17.492Z,0.00
2022-08-09T14:23:54.672Z,0.10
2022-08-09T14:26:31.682Z,0.00
2022-08-09T14:29:25.735Z,0.00
2022-08-09T14:31:55.073Z,0.00
2022-08-09T14:34:31.354Z,0.00
2022-08-09T14:37:06.121Z,0.00
2022-08-09T14:39:45.598Z,0.00
2022-08-09T14:42:31.362Z,0.20
2022-08-09T14:46:53.976Z,0.00
2022-08-09T14:47:58.495Z,0.10
2022-08-09T14:50:34.627Z,0.00
2022-08-09T14:53:12.047Z,0.00
2022-08-09T14:55:42.137Z,0.00
2022-08-09T14:58:09.696Z,0.00
2022-08-09T15:00:37.106Z,0.10
2022-08-09T15:03:07.619Z,0.10
2022-08-09T15:05:36.765Z,0.20
2022-08-09T15:08:05.075Z,0.00
2022-08-09T15:10:33.038Z,0.13
2022-08-09T15:13:01.555Z,0.00
2022-08-09T15:15:30.386Z,0.00
2022-08-09T15:18:01.767Z,0.00
2022-08-09T15:21:56.460Z,0.00
2022-08-09T15:24:02.153Z,0.00
2022-08-09T15:26:05.101Z,0.00
2022-08-09T15:28:36.441Z,0.10
2022-08-09T15:31:16.139Z,0.00
2022-08-09T15:34:27.394Z,0.00
2022-08-09T15:36:32.683Z,0.00
2022-08-09T15:39:00.151Z,0.00
2022-08-09T15:41:31.460Z,0.10
2022-08-09T15:44:02.806Z,0.00
2022-08-09T15:46:33.288Z,0.30
2022-08-09T15:49:22.299Z,0.00
2022-08-09T15:52:03.812Z,0.00
2022-08-09T15:54:49.048Z,0.00
2022-08-09T15:57:18.925Z,0.00
2022-08-09T15:59:52.244Z,0.20
2022-08-09T16:02:19.507Z,0.00
2022-08-09T16:04:54.342Z,0.10
2022-08-09T16:07:21.351Z,0.00
2022-08-09T16:09:57.696Z,1.00
2022-08-09T16:12:32.928Z,0.00
2022-08-09T16:15:01.241Z,0.10
2022-08-09T16:17:28.988Z,0.00
2022-08-09T16:20:05.026Z,0.00
2022-08-09T16:22:36.825Z,0.10
2022-08-09T16:25:10.828Z,0.00
2022-08-09T16:27:38.223Z,0.00
2022-08-09T16:30:14.968Z,0.20
2022-08-09T16:33:11.481Z,0.30
2022-08-09T16:35:57.506Z,0.43
2022-08-09T16:38:28.144Z,0.00
2022-08-09T16:40:57.030Z,0.00
2022-08-09T16:43:26.655Z,0.00
2022-08-09T16:45:54.903Z,0.00
2022-08-09T16:48:38.345Z,0.00
2022-08-09T16:51:13.757Z,0.03
2022-08-09T16:54:22.458Z,0.00
2022-08-09T16:56:32.739Z,0.00
2022-08-09T16:59:10.657Z,0.00
2022-08-09T17:01:38.848Z,0.00
2022-08-09T17:04:06.508Z,0.10
2022-08-09T17:07:07.360Z,0.30
2022-08-09T17:09:46.255Z,0.00
2022-08-09T17:12:09.497Z,0.00
2022-08-09T17:14:36.588Z,0.03
2022-08-09T17:17:03.921Z,0.00
2022-08-09T17:19:46.545Z,0.00
2022-08-09T17:22:14.836Z,0.00
2022-08-09T17:24:47.821Z,0.00
2022-08-09T17:27:22.803Z,0.00
2022-08-09T17:29:51.363Z,0.00
2022-08-09T17:32:20.171Z,0.00
2022-08-09T17:35:01.936Z,0.00
2022-08-09T17:38:14.574Z,0.00
2022-08-09T17:40:26.007Z,0.00
2022-08-09T17:42:59.899Z,0.00
2022-08-09T17:46:02.161Z,0.00
2022-08-09T17:48:28.457Z,0.10
2022-08-09T17:50:59.338Z,0.10
2022-08-09T17:53:43.495Z,0.08
2022-08-09T17:56:18.169Z,0.22
2022-08-09T17:58:45.618Z,0.00
2022-08-09T18:01:22.645Z,0.00
2022-08-09T18:03:54.289Z,0.10
2022-08-09T18:06:32.230Z,0.00
2022-08-09T18:09:03.146Z,0.00
2022-08-09T18:12:04.848Z,0.15
2022-08-09T18:14:20.698Z,0.10
2022-08-09T18:16:49.306Z,0.00
2022-08-09T18:20:55.954Z,0.00
2022-08-09T18:22:04.507Z,0.00
2022-08-09T18:24:31.593Z,0.00
2022-08-09T18:27:01.144Z,0.00
2022-08-09T18:30:41.058Z,0.10
2022-08-09T18:32:18.946Z,0.00
2022-08-09T18:34:48.187Z,0.00
2022-08-09T18:37:47.590Z,0.00
2022-08-09T18:40:03.064Z,0.00
2022-08-09T18:42:30.743Z,0.00
2022-08-09T18:45:00.973Z,0.00
2022-08-09T18:47:37.271Z,0.20
2022-08-09T18:50:08.953Z,0.35
2022-08-09T18:52:38.930Z,0.20
2022-08-09T18:55:06.477Z,0.20
2022-08-09T18:57:44.544Z,0.00
2022-08-09T19:00:19.166Z,0.45
2022-08-09T19:02:54.189Z,0.10
2022-08-09T19:05:48.723Z,0.00
2022-08-09T19:08:10.143Z,0.00
2022-08-09T19:10:39.312Z,0.13
2022-08-09T19:13:18.981Z,0.00
2022-08-09T19:15:52.261Z,0.00
2022-08-09T19:18:35.673Z,0.00
2022-08-09T19:24:36.524Z,0.00
2022-08-09T19:26:31.214Z,0.00
2022-08-09T19:29:15.044Z,0.10
2022-08-09T19:31:46.543Z,0.13
2022-08-09T19:34:22.698Z,0.00
2022-08-09T19:36:54.000Z,0.00
2022-08-09T19:39:43.083Z,0.00
2022-08-09T19:42:08.796Z,0.22
2022-08-09T19:44:36.897Z,0.00
2022-08-09T19:47:04.333Z,0.00
2022-08-09T19:50:07.254Z,0.20
2022-08-09T19:52:18.796Z,0.08
2022-08-09T19:54:46.022Z,0.05
2022-08-09T19:57:13.164Z,0.00
2022-08-09T20:00:05.574Z,0.00
2022-08-09T20:04:10.756Z,0.00
2022-08-09T20:05:16.655Z,0.00
2022-08-09T20:07:58.915Z,0.10
2022-08-09T20:10:34.014Z,0.00
2022-08-09T20:13:03.023Z,0.00
2022-08-09T20:16:33.946Z,0.00
2022-08-09T20:18:20.249Z,0.10
2022-08-09T20:20:51.438Z,0.00
2022-08-09T20:23:23.076Z,0.00
2022-08-09T20:25:53.333Z,0.00
2022-08-09T20:28:28.159Z,0.00
2022-08-09T20:31:05.160Z,0.10
2022-08-09T20:33:41.380Z,0.00
2022-08-09T20:36:11.844Z,0.03
2022-08-09T20:39:17.067Z,0.00
2022-08-09T20:41:32.303Z,0.00
2022-08-09T20:46:44.417Z,0.20
2022-08-09T20:49:16.045Z,0.00
2022-08-09T20:51:44.358Z,0.00
2022-08-09T20:54:16.811Z,0.10
2022-08-09T20:56:47.113Z,0.00
2022-08-09T20:59:17.448Z,0.00
2022-08-09T21:01:50.778Z,0.08
2022-08-09T21:05:57.206Z,0.00
2022-08-09T21:07:14.125Z,0.00
2022-08-09T21:09:55.768Z,0.00
2022-08-09T21:15:13.716Z,0.10
2022-08-09T21:18:21.016Z,0.00
2022-08-09T21:20:31.700Z,0.20
2022-08-09T21:22:59.740Z,0.03
2022-08-09T21:25:55.371Z,0.10
2022-08-09T21:28:36.108Z,0.10
2022-08-09T21:31:13.587Z,0.28
2022-08-09T21:33:50.721Z,0.00
2022-08-09T21:36:27.829Z,0.10
2022-08-09T21:38:57.548Z,0.00
2022-08-09T21:42:04.706Z,0.00
2022-08-09T21:44:15.432Z,0.00
2022-08-09T21:49:39.531Z,0.08
2022-08-09T21:52:14.650Z,0.20
2022-08-09T21:54:59.590Z,0.10
2022-08-09T21:57:38.153Z,0.00
2022-08-09T22:00:31.740Z,0.13
2022-08-09T22:03:06.020Z,0.13
2022-08-09T22:05:35.587Z,0.00
2022-08-09T22:08:06.286Z,0.20
2022-08-09T22:10:33.454Z,0.17
2022-08-09T22:13:07.332Z,0.17
2022-08-09T22:15:38.600Z,0.10
2022-08-09T22:18:08.326Z,0.10
2022-08-09T22:20:39.972Z,0.10
2022-08-09T22:23:10.438Z,0.10
2022-08-09T22:26:05.710Z,0.20
2022-08-09T22:28:29.448Z,0.10
2022-08-09T22:30:59.982Z,0.00
2022-08-09T22:33:37.701Z,0.05
2022-08-09T22:36:10.291Z,0.10
2022-08-09T22:38:40.115Z,0.10
2022-08-09T22:41:10.946Z,0.10
2022-08-09T22:44:03.528Z,0.10
2022-08-09T22:48:14.136Z,0.20
2022-08-09T22:49:14.769Z,0.00
2022-08-09T22:51:49.570Z,0.10
2022-08-09T22:54:21.410Z,0.10
2022-08-09T22:56:50.813Z,0.20
2022-08-09T22:59:57.188Z,0.15
2022-08-09T23:02:09.139Z,0.20
2022-08-09T23:04:38.166Z,0.10
2022-08-09T23:08:09.440Z,0.10
2022-08-09T23:10:11.428Z,0.10
2022-08-09T23:12:38.444Z,0.10
2022-08-09T23:15:05.904Z,0.10
2022-08-09T23:17:33.110Z,0.17
2022-08-09T23:20:07.719Z,0.10
2022-08-09T23:22:35.918Z,0.00
2022-08-09T23:25:04.648Z,0.10
2022-08-09T23:27:32.061Z,0.10
2022-08-09T23:29:59.173Z,0.10
2022-08-09T23:32:26.433Z,0.15
2022-08-09T23:34:53.784Z,0.10
2022-08-09T23:37:22.884Z,0.20
2022-08-09T23:39:52.836Z,0.38
2022-08-09T23:42:19.893Z,0.10
2022-08-09T23:44:47.217Z,0.10
2022-08-09T23:47:14.643Z,0.10
2022-08-09T23:49:41.784Z,0.10
2022-08-09T23:52:08.911Z,0.38
2022-08-09T23:54:36.082Z,0.10
2022-08-09T23:57:03.430Z,0.10
2022-08-09T23:59:51.352Z,0.20
